sensor_id;sensor_type;location;lat;lon;timestamp;pressure;altitude;pressure_sealevel;temperature
20848;BMP180;10584;50.854;12.902;2023-08-24T00:01:50;98480.00;;;15.60
20848;BMP180;10584;50.854;12.902;2023-08-24T00:07:41;98483.00;;;15.50
20848;BMP180;10584;50.854;12.902;2023-08-24T00:13:12;98471.00;;;15.50
20848;BMP180;10584;50.854;12.902;2023-08-24T00:18:57;98472.00;;;15.40
20848;BMP180;10584;50.854;12.902;2023-08-24T00:24:25;98468.00;;;15.30
20848;BMP180;10584;50.854;12.902;2023-08-24T00:29:46;98456.00;;;15.30
20848;BMP180;10584;50.854;12.902;2023-08-24T00:35:09;98446.00;;;15.20
20848;BMP180;10584;50.854;12.902;2023-08-24T00:40:31;98449.00;;;15.20
20848;BMP180;10584;50.854;12.902;2023-08-24T00:46:03;98441.00;;;15.10
20848;BMP180;10584;50.854;12.902;2023-08-24T00:51:59;98450.00;;;15.00
20848;BMP180;10584;50.854;12.902;2023-08-24T00:57:53;98445.00;;;15.00
20848;BMP180;10584;50.854;12.902;2023-08-24T01:03:36;98451.00;;;14.90
20848;BMP180;10584;50.854;12.902;2023-08-24T01:09:30;98441.00;;;14.80
20848;BMP180;10584;50.854;12.902;2023-08-24T01:15:37;98435.00;;;14.80
20848;BMP180;10584;50.854;12.902;2023-08-24T01:21:23;98447.00;;;14.70
20848;BMP180;10584;50.854;12.902;2023-08-24T01:27:14;98453.00;;;14.60
20848;BMP180;10584;50.854;12.902;2023-08-24T01:32:57;98447.00;;;14.60
20848;BMP180;10584;50.854;12.902;2023-08-24T01:38:37;98442.00;;;14.60
20848;BMP180;10584;50.854;12.902;2023-08-24T01:44:03;98445.00;;;14.50
20848;BMP180;10584;50.854;12.902;2023-08-24T01:49:32;98438.00;;;14.50
20848;BMP180;10584;50.854;12.902;2023-08-24T01:54:54;98434.00;;;14.40
20848;BMP180;10584;50.854;12.902;2023-08-24T02:00:16;98424.00;;;14.40
20848;BMP180;10584;50.854;12.902;2023-08-24T02:05:50;98425.00;;;14.40
20848;BMP180;10584;50.854;12.902;2023-08-24T02:11:35;98415.00;;;14.30
20848;BMP180;10584;50.854;12.902;2023-08-24T02:17:00;98425.00;;;14.30
20848;BMP180;10584;50.854;12.902;2023-08-24T02:22:41;98415.00;;;14.20
20848;BMP180;10584;50.854;12.902;2023-08-24T02:28:15;98423.00;;;14.20
20848;BMP180;10584;50.854;12.902;2023-08-24T02:33:52;98425.00;;;14.10
20848;BMP180;10584;50.854;12.902;2023-08-24T02:39:23;98417.00;;;14.10
20848;BMP180;10584;50.854;12.902;2023-08-24T02:44:49;98414.00;;;14.10
20848;BMP180;10584;50.854;12.902;2023-08-24T02:50:11;98417.00;;;14.10
20848;BMP180;10584;50.854;12.902;2023-08-24T02:55:33;98409.00;;;14.00
20848;BMP180;10584;50.854;12.902;2023-08-24T03:00:55;98401.00;;;14.00
20848;BMP180;10584;50.854;12.902;2023-08-24T03:06:21;98402.00;;;14.00
20848;BMP180;10584;50.854;12.902;2023-08-24T03:12:05;98391.00;;;13.90
20848;BMP180;10584;50.854;12.902;2023-08-24T03:17:52;98382.00;;;13.90
20848;BMP180;10584;50.854;12.902;2023-08-24T03:23:23;98397.00;;;13.80
20848;BMP180;10584;50.854;12.902;2023-08-24T03:29:03;98394.00;;;13.80
20848;BMP180;10584;50.854;12.902;2023-08-24T03:34:30;98401.00;;;13.80
20848;BMP180;10584;50.854;12.902;2023-08-24T03:39:52;98402.00;;;13.70
20848;BMP180;10584;50.854;12.902;2023-08-24T03:45:14;98398.00;;;13.70
20848;BMP180;10584;50.854;12.902;2023-08-24T03:50:36;98397.00;;;13.60
20848;BMP180;10584;50.854;12.902;2023-08-24T03:56:02;98401.00;;;13.60
20848;BMP180;10584;50.854;12.902;2023-08-24T04:01:50;98393.00;;;13.60
20848;BMP180;10584;50.854;12.902;2023-08-24T04:07:23;98395.00;;;13.50
20848;BMP180;10584;50.854;12.902;2023-08-24T04:13:04;98381.00;;;13.50
20848;BMP180;10584;50.854;12.902;2023-08-24T04:18:31;98399.00;;;13.50
20848;BMP180;10584;50.854;12.902;2023-08-24T04:24:00;98397.00;;;13.40
20848;BMP180;10584;50.854;12.902;2023-08-24T04:29:27;98398.00;;;13.40
20848;BMP180;10584;50.854;12.902;2023-08-24T04:34:50;98392.00;;;13.40
20848;BMP180;10584;50.854;12.902;2023-08-24T04:40:12;98403.00;;;13.40
20848;BMP180;10584;50.854;12.902;2023-08-24T04:45:33;98399.00;;;13.40
20848;BMP180;10584;50.854;12.902;2023-08-24T04:51:01;98393.00;;;13.40
20848;BMP180;10584;50.854;12.902;2023-08-24T04:56:57;98403.00;;;13.50
20848;BMP180;10584;50.854;12.902;2023-08-24T05:02:44;98400.00;;;13.50
20848;BMP180;10584;50.854;12.902;2023-08-24T05:08:26;98399.00;;;13.60
20848;BMP180;10584;50.854;12.902;2023-08-24T05:13:53;98402.00;;;13.70
20848;BMP180;10584;50.854;12.902;2023-08-24T05:19:23;98383.00;;;14.00
20848;BMP180;10584;50.854;12.902;2023-08-24T05:24:47;98389.00;;;14.30
20848;BMP180;10584;50.854;12.902;2023-08-24T05:30:09;98389.00;;;14.60
20848;BMP180;10584;50.854;12.902;2023-08-24T05:35:31;98391.00;;;14.90
20848;BMP180;10584;50.854;12.902;2023-08-24T05:41:00;98393.00;;;15.30
20848;BMP180;10584;50.854;12.902;2023-08-24T05:46:52;98401.00;;;15.70
20848;BMP180;10584;50.854;12.902;2023-08-24T05:52:38;98390.00;;;16.10
20848;BMP180;10584;50.854;12.902;2023-08-24T05:58:21;98383.00;;;16.50
20848;BMP180;10584;50.854;12.902;2023-08-24T06:03:56;98391.00;;;16.90
20848;BMP180;10584;50.854;12.902;2023-08-24T06:09:32;98391.00;;;17.30
20848;BMP180;10584;50.854;12.902;2023-08-24T06:14:54;98380.00;;;17.70
20848;BMP180;10584;50.854;12.902;2023-08-24T06:20:18;98381.00;;;18.00
20848;BMP180;10584;50.854;12.902;2023-08-24T06:25:41;98386.00;;;18.50
20848;BMP180;10584;50.854;12.902;2023-08-24T06:31:10;98370.00;;;18.90
20848;BMP180;10584;50.854;12.902;2023-08-24T06:37:01;98374.00;;;19.30
20848;BMP180;10584;50.854;12.902;2023-08-24T06:42:46;98381.00;;;19.70
20848;BMP180;10584;50.854;12.902;2023-08-24T06:48:27;98372.00;;;20.10
20848;BMP180;10584;50.854;12.902;2023-08-24T06:53:56;98361.00;;;20.50
20848;BMP180;10584;50.854;12.902;2023-08-24T06:59:26;98355.00;;;20.90
20848;BMP180;10584;50.854;12.902;2023-08-24T07:05:02;98359.00;;;21.20
20848;BMP180;10584;50.854;12.902;2023-08-24T07:10:42;98350.00;;;21.60
20848;BMP180;10584;50.854;12.902;2023-08-24T07:16:30;98359.00;;;22.00
20848;BMP180;10584;50.854;12.902;2023-08-24T07:22:15;98370.00;;;22.40
20848;BMP180;10584;50.854;12.902;2023-08-24T07:27:56;98353.00;;;22.70
20848;BMP180;10584;50.854;12.902;2023-08-24T07:33:32;98359.00;;;23.00
20848;BMP180;10584;50.854;12.902;2023-08-24T07:39:02;98371.00;;;23.30
20848;BMP180;10584;50.854;12.902;2023-08-24T07:44:29;98372.00;;;23.70
20848;BMP180;10584;50.854;12.902;2023-08-24T07:49:50;98369.00;;;24.00
20848;BMP180;10584;50.854;12.902;2023-08-24T07:55:12;98376.00;;;24.40
20848;BMP180;10584;50.854;12.902;2023-08-24T08:00:33;98379.00;;;24.60
20848;BMP180;10584;50.854;12.902;2023-08-24T08:05:58;98381.00;;;24.90
20848;BMP180;10584;50.854;12.902;2023-08-24T08:11:32;98385.00;;;25.30
20848;BMP180;10584;50.854;12.902;2023-08-24T08:17:05;98378.00;;;25.50
20848;BMP180;10584;50.854;12.902;2023-08-24T08:22:48;98373.00;;;25.80
20848;BMP180;10584;50.854;12.902;2023-08-24T08:28:27;98366.00;;;26.00
20848;BMP180;10584;50.854;12.902;2023-08-24T08:34:04;98364.00;;;26.20
20848;BMP180;10584;50.854;12.902;2023-08-24T08:39:28;98360.00;;;26.40
20848;BMP180;10584;50.854;12.902;2023-08-24T08:44:54;98362.00;;;26.60
20848;BMP180;10584;50.854;12.902;2023-08-24T08:50:17;98363.00;;;26.70
20848;BMP180;10584;50.854;12.902;2023-08-24T08:55:39;98356.00;;;26.90
20848;BMP180;10584;50.854;12.902;2023-08-24T09:01:03;98346.00;;;27.10
20848;BMP180;10584;50.854;12.902;2023-08-24T09:06:27;98351.00;;;27.20
20848;BMP180;10584;50.854;12.902;2023-08-24T09:11:54;98333.00;;;27.30
20848;BMP180;10584;50.854;12.902;2023-08-24T09:17:44;98335.00;;;27.40
20848;BMP180;10584;50.854;12.902;2023-08-24T09:23:32;98324.00;;;27.50
20848;BMP180;10584;50.854;12.902;2023-08-24T09:29:18;98339.00;;;27.70
20848;BMP180;10584;50.854;12.902;2023-08-24T09:34:44;98327.00;;;27.80
20848;BMP180;10584;50.854;12.902;2023-08-24T09:40:07;98322.00;;;27.70
20848;BMP180;10584;50.854;12.902;2023-08-24T09:45:32;98312.00;;;27.70
20848;BMP180;10584;50.854;12.902;2023-08-24T09:51:03;98316.00;;;27.70
20848;BMP180;10584;50.854;12.902;2023-08-24T09:56:57;98306.00;;;27.70
20848;BMP180;10584;50.854;12.902;2023-08-24T10:02:53;98302.00;;;27.80
20848;BMP180;10584;50.854;12.902;2023-08-24T10:08:54;98311.00;;;27.90
20848;BMP180;10584;50.854;12.902;2023-08-24T10:20:15;98293.00;;;27.90
20848;BMP180;10584;50.854;12.902;2023-08-24T10:26:17;98289.00;;;27.90
20848;BMP180;10584;50.854;12.902;2023-08-24T10:32:08;98296.00;;;27.60
20848;BMP180;10584;50.854;12.902;2023-08-24T10:37:54;98290.00;;;27.60
20848;BMP180;10584;50.854;12.902;2023-08-24T10:43:39;98298.00;;;27.70
20848;BMP180;10584;50.854;12.902;2023-08-24T10:49:08;98308.00;;;27.70
20848;BMP180;10584;50.854;12.902;2023-08-24T10:54:43;98279.00;;;27.60
20848;BMP180;10584;50.854;12.902;2023-08-24T11:00:07;98263.00;;;27.40
20848;BMP180;10584;50.854;12.902;2023-08-24T11:05:38;98210.00;;;27.30
20848;BMP180;10584;50.854;12.902;2023-08-24T11:11:26;98173.00;;;27.20
20848;BMP180;10584;50.854;12.902;2023-08-24T11:17:18;98173.00;;;27.20
20848;BMP180;10584;50.854;12.902;2023-08-24T11:22:57;98169.00;;;27.10
20848;BMP180;10584;50.854;12.902;2023-08-24T11:28:30;98160.00;;;27.00
20848;BMP180;10584;50.854;12.902;2023-08-24T11:34:09;98162.00;;;27.10
20848;BMP180;10584;50.854;12.902;2023-08-24T11:39:36;98168.00;;;27.40
20848;BMP180;10584;50.854;12.902;2023-08-24T11:44:59;98173.00;;;27.50
20848;BMP180;10584;50.854;12.902;2023-08-24T11:50:22;98184.00;;;27.50
20848;BMP180;10584;50.854;12.902;2023-08-24T11:55:44;98173.00;;;27.40
20848;BMP180;10584;50.854;12.902;2023-08-24T12:01:59;98171.00;;;27.30
20848;BMP180;10584;50.854;12.902;2023-08-24T12:07:44;98158.00;;;27.20
20848;BMP180;10584;50.854;12.902;2023-08-24T12:13:12;98154.00;;;27.30
20848;BMP180;10584;50.854;12.902;2023-08-24T12:18:57;98157.00;;;27.60
20848;BMP180;10584;50.854;12.902;2023-08-24T12:24:34;98148.00;;;27.80
20848;BMP180;10584;50.854;12.902;2023-08-24T12:30:01;98140.00;;;27.70
20848;BMP180;10584;50.854;12.902;2023-08-24T12:35:23;98132.00;;;27.70
20848;BMP180;10584;50.854;12.902;2023-08-24T12:40:45;98138.00;;;28.00
20848;BMP180;10584;50.854;12.902;2023-08-24T12:46:25;98131.00;;;28.30
20848;BMP180;10584;50.854;12.902;2023-08-24T12:52:11;98118.00;;;28.60
20848;BMP180;10584;50.854;12.902;2023-08-24T12:57:42;98106.00;;;28.70
20848;BMP180;10584;50.854;12.902;2023-08-24T13:03:23;98094.00;;;29.00
20848;BMP180;10584;50.854;12.902;2023-08-24T13:09:09;98085.00;;;29.40
20848;BMP180;10584;50.854;12.902;2023-08-24T13:14:41;98080.00;;;29.70
20848;BMP180;10584;50.854;12.902;2023-08-24T13:20:04;98067.00;;;29.80
20848;BMP180;10584;50.854;12.902;2023-08-24T13:25:26;98066.00;;;29.80
20848;BMP180;10584;50.854;12.902;2023-08-24T13:30:58;98054.00;;;29.80
20848;BMP180;10584;50.854;12.902;2023-08-24T13:36:47;98049.00;;;29.80
20848;BMP180;10584;50.854;12.902;2023-08-24T13:42:38;98042.00;;;30.10
20848;BMP180;10584;50.854;12.902;2023-08-24T13:48:19;98035.00;;;30.00
20848;BMP180;10584;50.854;12.902;2023-08-24T13:53:56;98035.00;;;30.00
20848;BMP180;10584;50.854;12.902;2023-08-24T13:59:24;98039.00;;;30.20
20848;BMP180;10584;50.854;12.902;2023-08-24T14:04:54;98037.00;;;30.10
20848;BMP180;10584;50.854;12.902;2023-08-24T14:10:27;98018.00;;;30.30
20848;BMP180;10584;50.854;12.902;2023-08-24T14:15:50;98027.00;;;30.20
20848;BMP180;10584;50.854;12.902;2023-08-24T14:21:26;98010.00;;;30.30
20848;BMP180;10584;50.854;12.902;2023-08-24T14:27:11;98000.00;;;30.50
20848;BMP180;10584;50.854;12.902;2023-08-24T14:32:40;97996.00;;;30.50
20848;BMP180;10584;50.854;12.902;2023-08-24T14:38:20;97987.00;;;30.60
20848;BMP180;10584;50.854;12.902;2023-08-24T14:43:57;97980.00;;;30.80
20848;BMP180;10584;50.854;12.902;2023-08-24T14:49:24;97985.00;;;30.80
20848;BMP180;10584;50.854;12.902;2023-08-24T14:54:50;97982.00;;;30.90
20848;BMP180;10584;50.854;12.902;2023-08-24T15:00:12;97987.00;;;30.90
20848;BMP180;10584;50.854;12.902;2023-08-24T15:06:03;97998.00;;;31.10
20848;BMP180;10584;50.854;12.902;2023-08-24T15:11:32;97986.00;;;31.00
20848;BMP180;10584;50.854;12.902;2023-08-24T15:17:02;97984.00;;;31.10
20848;BMP180;10584;50.854;12.902;2023-08-24T15:23:03;97968.00;;;31.20
20848;BMP180;10584;50.854;12.902;2023-08-24T15:28:26;97966.00;;;31.20
20848;BMP180;10584;50.854;12.902;2023-08-24T15:33:54;97955.00;;;31.20
20848;BMP180;10584;50.854;12.902;2023-08-24T15:39:26;97941.00;;;31.10
20848;BMP180;10584;50.854;12.902;2023-08-24T15:44:49;97918.00;;;31.00
20848;BMP180;10584;50.854;12.902;2023-08-24T15:50:11;97917.00;;;30.90
20848;BMP180;10584;50.854;12.902;2023-08-24T15:55:36;97925.00;;;30.90
20848;BMP180;10584;50.854;12.902;2023-08-24T16:00:58;97935.00;;;30.70
20848;BMP180;10584;50.854;12.902;2023-08-24T16:06:22;97962.00;;;30.70
20848;BMP180;10584;50.854;12.902;2023-08-24T16:11:49;97954.00;;;30.50
20848;BMP180;10584;50.854;12.902;2023-08-24T16:17:17;97956.00;;;30.40
20848;BMP180;10584;50.854;12.902;2023-08-24T16:22:57;97947.00;;;30.30
20848;BMP180;10584;50.854;12.902;2023-08-24T16:28:34;97937.00;;;30.10
20848;BMP180;10584;50.854;12.902;2023-08-24T16:34:03;97929.00;;;30.10
20848;BMP180;10584;50.854;12.902;2023-08-24T16:39:32;97924.00;;;30.00
20848;BMP180;10584;50.854;12.902;2023-08-24T16:44:54;97929.00;;;29.90
20848;BMP180;10584;50.854;12.902;2023-08-24T16:50:16;97927.00;;;29.80
20848;BMP180;10584;50.854;12.902;2023-08-24T16:55:38;97930.00;;;29.70
20848;BMP180;10584;50.854;12.902;2023-08-24T17:01:28;97919.00;;;29.60
20848;BMP180;10584;50.854;12.902;2023-08-24T17:07:23;97915.00;;;29.50
20848;BMP180;10584;50.854;12.902;2023-08-24T17:12:59;97916.00;;;29.20
20848;BMP180;10584;50.854;12.902;2023-08-24T17:18:23;97909.00;;;28.90
20848;BMP180;10584;50.854;12.902;2023-08-24T17:24:05;97907.00;;;28.60
20848;BMP180;10584;50.854;12.902;2023-08-24T17:29:31;97908.00;;;28.40
20848;BMP180;10584;50.854;12.902;2023-08-24T17:34:53;97934.00;;;28.10
20848;BMP180;10584;50.854;12.902;2023-08-24T17:40:15;97929.00;;;27.80
20848;BMP180;10584;50.854;12.902;2023-08-24T17:45:38;97940.00;;;27.60
20848;BMP180;10584;50.854;12.902;2023-08-24T17:51:08;97927.00;;;27.30
20848;BMP180;10584;50.854;12.902;2023-08-24T17:57:03;97919.00;;;27.00
20848;BMP180;10584;50.854;12.902;2023-08-24T18:02:57;97927.00;;;26.60
20848;BMP180;10584;50.854;12.902;2023-08-24T18:08:42;97920.00;;;26.30
20848;BMP180;10584;50.854;12.902;2023-08-24T18:14:13;97916.00;;;26.10
20848;BMP180;10584;50.854;12.902;2023-08-24T18:19:42;97889.00;;;25.80
20848;BMP180;10584;50.854;12.902;2023-08-24T18:25:04;97893.00;;;25.60
20848;BMP180;10584;50.854;12.902;2023-08-24T18:30:26;97888.00;;;25.30
20848;BMP180;10584;50.854;12.902;2023-08-24T18:36:00;97886.00;;;25.10
20848;BMP180;10584;50.854;12.902;2023-08-24T18:42:00;97879.00;;;24.90
20848;BMP180;10584;50.854;12.902;2023-08-24T18:47:53;97872.00;;;24.70
20848;BMP180;10584;50.854;12.902;2023-08-24T18:53:35;97861.00;;;24.40
20848;BMP180;10584;50.854;12.902;2023-08-24T18:59:06;97841.00;;;24.20
20848;BMP180;10584;50.854;12.902;2023-08-24T19:04:40;97825.00;;;24.00
20848;BMP180;10584;50.854;12.902;2023-08-24T19:10:34;97817.00;;;23.80
20848;BMP180;10584;50.854;12.902;2023-08-24T19:16:30;97801.00;;;23.70
20848;BMP180;10584;50.854;12.902;2023-08-24T19:22:13;97766.00;;;23.50
20848;BMP180;10584;50.854;12.902;2023-08-24T19:27:45;97768.00;;;23.40
20848;BMP180;10584;50.854;12.902;2023-08-24T19:33:27;97765.00;;;23.30
20848;BMP180;10584;50.854;12.902;2023-08-24T19:38:52;97756.00;;;23.20
20848;BMP180;10584;50.854;12.902;2023-08-24T19:44:20;97743.00;;;23.10
20848;BMP180;10584;50.854;12.902;2023-08-24T19:49:41;97734.00;;;22.90
20848;BMP180;10584;50.854;12.902;2023-08-24T19:55:05;97729.00;;;22.80
20848;BMP180;10584;50.854;12.902;2023-08-24T20:00:28;97723.00;;;22.60
20848;BMP180;10584;50.854;12.902;2023-08-24T20:06:00;97712.00;;;22.50
20848;BMP180;10584;50.854;12.902;2023-08-24T20:12:04;97706.00;;;22.40
20848;BMP180;10584;50.854;12.902;2023-08-24T20:17:55;97711.00;;;22.20
20848;BMP180;10584;50.854;12.902;2023-08-24T20:23:32;97700.00;;;22.10
20848;BMP180;10584;50.854;12.902;2023-08-24T20:29:15;97708.00;;;21.90
20848;BMP180;10584;50.854;12.902;2023-08-24T20:34:39;97721.00;;;21.80
20848;BMP180;10584;50.854;12.902;2023-08-24T20:40:01;97727.00;;;21.80
20848;BMP180;10584;50.854;12.902;2023-08-24T20:45:23;97729.00;;;21.80
20848;BMP180;10584;50.854;12.902;2023-08-24T20:50:45;97741.00;;;21.80
20848;BMP180;10584;50.854;12.902;2023-08-24T20:56:19;97737.00;;;21.90
20848;BMP180;10584;50.854;12.902;2023-08-24T21:02:07;97726.00;;;21.90
20848;BMP180;10584;50.854;12.902;2023-08-24T21:07:49;97725.00;;;21.90
20848;BMP180;10584;50.854;12.902;2023-08-24T21:13:15;97729.00;;;21.90
20848;BMP180;10584;50.854;12.902;2023-08-24T21:18:54;97711.00;;;21.90
20848;BMP180;10584;50.854;12.902;2023-08-24T21:24:20;97710.00;;;21.90
20848;BMP180;10584;50.854;12.902;2023-08-24T21:29:42;97708.00;;;21.90
20848;BMP180;10584;50.854;12.902;2023-08-24T21:35:06;97708.00;;;21.90
20848;BMP180;10584;50.854;12.902;2023-08-24T21:40:27;97714.00;;;21.90
20848;BMP180;10584;50.854;12.902;2023-08-24T21:46:07;97722.00;;;21.80
20848;BMP180;10584;50.854;12.902;2023-08-24T21:51:49;97702.00;;;21.90
20848;BMP180;10584;50.854;12.902;2023-08-24T21:57:39;97695.00;;;21.90
20848;BMP180;10584;50.854;12.902;2023-08-24T22:03:35;97676.00;;;22.00
20848;BMP180;10584;50.854;12.902;2023-08-24T22:09:33;97664.00;;;22.00
20848;BMP180;10584;50.854;12.902;2023-08-24T22:15:26;97661.00;;;22.10
20848;BMP180;10584;50.854;12.902;2023-08-24T22:20:50;97613.00;;;22.10
20848;BMP180;10584;50.854;12.902;2023-08-24T22:26:29;97640.00;;;22.20
20848;BMP180;10584;50.854;12.902;2023-08-24T22:32:07;97660.00;;;22.30
20848;BMP180;10584;50.854;12.902;2023-08-24T22:37:47;97651.00;;;22.50
20848;BMP180;10584;50.854;12.902;2023-08-24T22:43:24;97654.00;;;22.70
20848;BMP180;10584;50.854;12.902;2023-08-24T22:49:02;97670.00;;;22.70
20848;BMP180;10584;50.854;12.902;2023-08-24T22:54:26;97676.00;;;22.90
20848;BMP180;10584;50.854;12.902;2023-08-24T22:59:47;97671.00;;;23.00
20848;BMP180;10584;50.854;12.902;2023-08-24T23:11:22;97660.00;;;23.10
20848;BMP180;10584;50.854;12.902;2023-08-24T23:17:04;97681.00;;;23.20
20848;BMP180;10584;50.854;12.902;2023-08-24T23:22:37;97668.00;;;23.10
20848;BMP180;10584;50.854;12.902;2023-08-24T23:28:06;97669.00;;;23.20
20848;BMP180;10584;50.854;12.902;2023-08-24T23:33:39;97661.00;;;23.10
20848;BMP180;10584;50.854;12.902;2023-08-24T23:39:02;97659.00;;;23.00
20848;BMP180;10584;50.854;12.902;2023-08-24T23:44:29;97652.00;;;22.80
20848;BMP180;10584;50.854;12.902;2023-08-24T23:49:51;97648.00;;;22.80
20848;BMP180;10584;50.854;12.902;2023-08-24T23:55:13;97660.00;;;22.70
